Time;durP1;ratioP1;P1;durP2;ratioP2;P2;SDS_P1;SDS_P2;PMS_P1;PMS_P2;Temp;Humidity;BMP_temperature;BMP_pressure;BME280_temperature;BME280_humidity;BME280_pressure;Samples;Min_cycle;Max_cycle;Signal;HPM_P1;HPM_P2
2021/09/21 00:00:04;;;;;;;1.87;1.05;;;;;;;18.32;40.56;99180.30;1724266;81;21193;-42
2021/09/21 00:02:32;;;;;;;0.80;0.80;;;;;;;18.32;40.56;99182.12;1725557;81;21540;-42
2021/09/21 00:04:58;;;;;;;2.10;0.98;;;;;;;18.33;40.31;99186.50;1731045;81;20999;-42
2021/09/21 00:07:26;;;;;;;1.67;1.15;;;;;;;18.31;40.42;99184.44;1728063;80;21047;-43
2021/09/21 00:09:53;;;;;;;2.00;1.00;;;;;;;18.33;40.36;99181.17;1730428;81;21556;-42
2021/09/21 00:12:22;;;;;;;4.15;0.93;;;;;;;18.33;40.12;99186.50;1721552;81;21078;-42
2021/09/21 00:14:51;;;;;;;0.70;0.70;;;;;;;18.32;40.16;99184.79;1721573;81;22180;-41
2021/09/21 00:17:17;;;;;;;1.72;0.90;;;;;;;18.30;40.22;99184.90;1721345;81;21060;-41
2021/09/21 00:19:45;;;;;;;1.00;0.88;;;;;;;18.30;40.28;99181.39;1719006;82;21566;-41
2021/09/21 00:22:11;;;;;;;1.02;0.90;;;;;;;18.30;40.03;99184.05;1728009;81;21117;-42
2021/09/21 00:24:39;;;;;;;1.27;0.95;;;;;;;18.26;40.06;99179.44;1725399;81;21664;-41
2021/09/21 00:27:06;;;;;;;1.35;0.72;;;;;;;18.24;40.17;99183.16;1727195;81;21034;-43
2021/09/21 00:29:34;;;;;;;1.30;1.07;;;;;;;18.24;40.10;99181.82;1730055;81;21084;-42
2021/09/21 00:32:01;;;;;;;1.32;0.80;;;;;;;18.24;40.08;99184.48;1729590;81;21071;-45
2021/09/21 00:34:37;;;;;;;3.60;1.05;;;;;;;18.23;40.07;99185.47;1724908;81;21086;-42
2021/09/21 00:36:58;;;;;;;0.70;0.70;;;;;;;18.22;39.91;99181.09;1731127;81;21021;-41
2021/09/21 00:39:25;;;;;;;0.78;0.75;;;;;;;18.20;40.00;99184.70;1719019;82;21511;-41
2021/09/21 00:41:52;;;;;;;1.37;1.00;;;;;;;18.19;40.07;99179.02;1737332;81;21428;-41
2021/09/21 00:44:20;;;;;;;0.90;0.88;;;;;;;18.19;39.92;99183.02;1698348;82;20987;-42
2021/09/21 00:46:48;;;;;;;1.22;0.78;;;;;;;18.17;39.96;99178.75;1716989;82;21122;-43
2021/09/21 00:49:15;;;;;;;1.82;1.00;;;;;;;18.15;39.96;99181.52;1723002;81;21124;-41
2021/09/21 00:51:42;;;;;;;0.72;0.70;;;;;;;18.13;39.99;99184.78;1744421;80;20959;-42
2021/09/21 00:54:09;;;;;;;0.80;0.80;;;;;;;18.14;39.99;99181.16;1727505;81;21114;-41
2021/09/21 00:56:37;;;;;;;0.70;0.70;;;;;;;18.17;40.01;99187.61;1720126;81;21623;-42
2021/09/21 00:59:03;;;;;;;1.02;0.70;;;;;;;18.16;40.02;99188.55;1708995;81;21529;-42
2021/09/21 01:01:30;;;;;;;2.05;0.85;;;;;;;18.15;40.04;99189.50;1736650;81;21264;-42
2021/09/21 01:03:59;;;;;;;0.90;0.90;;;;;;;18.15;40.07;99188.17;1685688;83;21158;-42
2021/09/21 01:06:28;;;;;;;3.25;1.00;;;;;;;18.14;39.87;99182.50;1727042;81;21163;-42
2021/09/21 01:08:54;;;;;;;1.47;0.93;;;;;;;18.14;39.83;99186.95;1735744;82;21047;-41
2021/09/21 01:11:22;;;;;;;1.30;1.20;;;;;;;18.10;39.96;99188.98;1745011;81;21027;-41
2021/09/21 01:13:50;;;;;;;2.95;1.02;;;;;;;18.06;39.84;99194.16;1746628;81;21967;-41
2021/09/21 01:16:20;;;;;;;0.95;0.90;;;;;;;18.04;39.88;99194.77;1734391;81;21011;-41
2021/09/21 01:18:47;;;;;;;1.05;0.98;;;;;;;18.00;39.87;99198.13;1743039;81;21454;-41
2021/09/21 01:21:15;;;;;;;1.80;0.85;;;;;;;17.98;40.01;99197.84;1740729;81;21109;-41
2021/09/21 01:23:52;;;;;;;0.78;0.70;;;;;;;17.97;40.11;99193.47;1720062;81;21057;-42
2021/09/21 01:26:20;;;;;;;1.07;0.78;;;;;;;17.94;40.23;99196.38;1747315;81;21919;-43
2021/09/21 01:28:48;;;;;;;1.50;0.70;;;;;;;17.94;40.22;99197.22;1731668;81;21076;-41
2021/09/21 01:31:15;;;;;;;0.80;0.80;;;;;;;17.94;40.32;99201.70;1733141;81;21054;-42
2021/09/21 01:33:49;;;;;;;3.80;0.90;;;;;;;17.94;40.28;99200.37;1728293;81;21084;-40
2021/09/21 01:36:19;;;;;;;2.83;0.95;;;;;;;17.95;40.35;99203.38;1732034;81;21046;-41
2021/09/21 01:38:47;;;;;;;0.93;0.93;;;;;;;17.98;40.37;99205.83;1685510;83;20999;-41
2021/09/21 01:41:13;;;;;;;0.90;0.90;;;;;;;18.00;40.28;99195.92;1667318;84;21011;-41
2021/09/21 01:43:42;;;;;;;1.20;0.80;;;;;;;17.99;40.29;99200.89;1682853;83;21560;-41
2021/09/21 01:46:10;;;;;;;1.17;1.05;;;;;;;18.01;40.27;99194.97;1669885;83;21097;-42
2021/09/21 01:48:38;;;;;;;0.98;0.75;;;;;;;18.01;40.31;99198.97;1672021;84;21535;-41
2021/09/21 01:51:09;;;;;;;1.20;0.72;;;;;;;18.01;40.30;99195.81;1677900;83;21091;-41
2021/09/21 01:53:42;;;;;;;0.70;0.70;;;;;;;18.01;40.32;99198.48;1671749;84;21068;-41
2021/09/21 01:58:54;;;;;;;4.35;0.90;;;;;;;18.00;40.35;99198.13;1680054;84;21052;-41
2021/09/21 02:01:23;;;;;;;0.75;0.75;;;;;;;17.99;40.38;99198.23;1686371;84;21096;-41
2021/09/21 02:03:55;;;;;;;1.20;1.05;;;;;;;17.98;40.40;99200.51;1686050;84;21096;-41
2021/09/21 02:06:32;;;;;;;2.65;0.80;;;;;;;17.98;40.37;99211.16;1669530;84;21315;-40
2021/09/21 02:08:51;;;;;;;0.82;0.80;;;;;;;17.95;40.42;99206.88;1666290;84;21597;-41
2021/09/21 02:11:19;;;;;;;3.05;1.00;;;;;;;17.94;40.50;99206.53;1682146;84;21021;-45
2021/09/21 02:13:47;;;;;;;1.05;1.00;;;;;;;17.92;40.52;99208.91;1671818;83;21057;-42
2021/09/21 02:16:15;;;;;;;2.30;1.00;;;;;;;17.92;40.53;99214.23;1671990;84;21035;-41
2021/09/21 02:18:42;;;;;;;1.27;0.93;;;;;;;17.91;40.51;99216.55;1673285;84;21464;-43
2021/09/21 02:21:10;;;;;;;0.80;0.80;;;;;;;17.89;40.56;99216.65;1666977;83;21040;-41
2021/09/21 02:23:37;;;;;;;1.07;0.90;;;;;;;17.90;40.56;99222.81;1659746;84;21908;-41
2021/09/21 02:26:04;;;;;;;0.82;0.80;;;;;;;17.88;40.66;99216.75;1677361;82;21657;-41
2021/09/21 02:28:32;;;;;;;0.60;0.60;;;;;;;17.85;40.68;99215.11;1666383;84;21208;-41
2021/09/21 02:30:58;;;;;;;0.62;0.62;;;;;;;17.83;40.77;99213.05;1670385;84;22147;-40
2021/09/21 02:33:26;;;;;;;1.55;1.00;;;;;;;17.81;40.82;99213.14;1671079;84;21012;-41
2021/09/21 02:35:53;;;;;;;0.82;0.82;;;;;;;17.82;40.82;99219.34;1668539;84;21043;-41
2021/09/21 02:38:19;;;;;;;1.47;0.82;;;;;;;17.81;40.87;99210.97;1667169;84;21051;-41
2021/09/21 02:40:47;;;;;;;0.65;0.65;;;;;;;17.78;40.91;99214.69;1674211;84;20985;-41
2021/09/21 02:43:14;;;;;;;4.97;1.00;;;;;;;17.76;40.97;99219.75;1686921;83;21103;-41
2021/09/21 02:45:41;;;;;;;0.70;0.70;;;;;;;17.75;40.99;99218.91;1680347;83;21086;-40
2021/09/21 02:48:07;;;;;;;1.02;0.72;;;;;;;17.79;40.96;99222.21;1715763;81;21099;-41
2021/09/21 02:50:34;;;;;;;1.17;1.00;;;;;;;17.80;41.00;99214.13;1729109;80;21039;-42
2021/09/21 02:53:02;;;;;;;0.82;0.82;;;;;;;17.78;40.97;99216.02;1723677;80;21081;-43
2021/09/21 02:55:29;;;;;;;0.80;0.80;;;;;;;17.76;40.96;99212.61;1722039;81;21070;-41
2021/09/21 02:57:57;;;;;;;1.87;0.80;;;;;;;17.77;40.88;99213.45;1722574;81;21043;-40
2021/09/21 03:00:25;;;;;;;0.70;0.70;;;;;;;17.73;40.92;99216.81;1734128;81;20996;-41
2021/09/21 03:02:53;;;;;;;1.95;0.88;;;;;;;17.71;41.03;99221.88;1704418;82;21058;-42
2021/09/21 03:05:26;;;;;;;0.60;0.60;;;;;;;17.70;40.97;99219.71;1702431;81;21123;-41
2021/09/21 03:08:11;;;;;;;0.80;0.62;;;;;;;17.69;40.97;99212.67;1686014;83;21721;-41
2021/09/21 03:10:55;;;;;;;1.17;0.65;;;;;;;17.69;40.95;99221.14;1710000;81;21118;-41
2021/09/21 03:13:25;;;;;;;1.15;0.90;;;;;;;17.66;41.03;99220.02;1741537;80;21498;-40
2021/09/21 03:18:31;;;;;;;1.42;0.90;;;;;;;17.62;41.13;99224.70;1737346;81;21160;-42
2021/09/21 03:20:59;;;;;;;0.60;0.60;;;;;;;17.60;41.06;99234.58;1736295;80;21051;-42
2021/09/21 03:23:29;;;;;;;1.22;0.72;;;;;;;17.57;41.21;99226.83;1723423;81;21035;-41
2021/09/21 03:25:57;;;;;;;1.47;0.80;;;;;;;17.58;41.20;99228.52;1730602;80;21058;-41
2021/09/21 03:28:23;;;;;;;0.57;0.57;;;;;;;17.57;41.24;99225.50;1741127;80;21078;-42
2021/09/21 03:30:50;;;;;;;0.90;0.70;;;;;;;17.57;41.26;99222.84;1729736;81;21092;-43
2021/09/21 03:33:18;;;;;;;0.70;0.70;;;;;;;17.57;41.10;99228.16;1734840;81;21010;-42
2021/09/21 03:35:46;;;;;;;0.70;0.70;;;;;;;17.59;41.07;99226.23;1732898;80;21065;-42
2021/09/21 03:38:13;;;;;;;1.00;0.70;;;;;;;17.58;40.94;99227.19;1720531;81;21073;-42
2021/09/21 03:40:39;;;;;;;0.78;0.65;;;;;;;17.59;40.92;99228.90;1749460;79;20971;-43
2021/09/21 03:43:06;;;;;;;0.80;0.70;;;;;;;17.59;40.89;99226.23;1726872;81;21191;-41
2021/09/21 03:45:34;;;;;;;0.70;0.70;;;;;;;17.59;40.98;99231.56;1736145;81;20956;-42
2021/09/21 03:48:02;;;;;;;2.02;0.90;;;;;;;17.60;40.93;99226.59;1715489;82;21082;-42
2021/09/21 03:50:29;;;;;;;1.05;0.80;;;;;;;17.60;40.93;99225.27;1727512;81;21015;-44
2021/09/21 03:52:55;;;;;;;0.85;0.80;;;;;;;17.60;40.80;99227.92;1725286;81;21086;-41
2021/09/21 03:55:24;;;;;;;1.15;0.70;;;;;;;17.58;40.96;99230.69;1720156;81;22229;-41
2021/09/21 03:57:50;;;;;;;0.70;0.70;;;;;;;17.57;40.95;99225.50;1722129;81;21070;-41
2021/09/21 04:00:18;;;;;;;2.55;0.70;;;;;;;17.56;40.95;99225.11;1720215;81;21038;-43
2021/09/21 04:02:45;;;;;;;1.02;0.62;;;;;;;17.57;40.99;99222.84;1726929;80;21091;-41
2021/09/21 04:05:11;;;;;;;0.62;0.60;;;;;;;17.59;41.00;99218.26;1692125;83;21202;-40
2021/09/21 04:07:38;;;;;;;0.70;0.70;;;;;;;17.59;41.01;99216.93;1674915;83;21543;-40
2021/09/21 04:10:07;;;;;;;0.75;0.65;;;;;;;17.60;40.96;99227.92;1690749;83;21859;-41
2021/09/21 04:12:35;;;;;;;0.60;0.60;;;;;;;17.59;40.91;99226.23;1677135;82;21589;-41
2021/09/21 04:15:05;;;;;;;2.58;0.78;;;;;;;17.59;40.92;99220.92;1677763;83;21083;-39
2021/09/21 04:17:32;;;;;;;2.30;0.93;;;;;;;17.58;40.91;99231.17;1681683;83;21056;-41
2021/09/21 04:19:58;;;;;;;0.95;0.95;;;;;;;17.60;40.86;99227.47;1686457;83;21164;-42
2021/09/21 04:22:24;;;;;;;1.30;1.20;;;;;;;17.61;42.69;99229.64;1735113;81;21520;-43
2021/09/21 04:24:53;;;;;;;1.35;0.90;;;;;;;17.61;44.28;99229.64;1706918;82;21029;-43
2021/09/21 04:27:19;;;;;;;1.85;0.90;;;;;;;17.65;45.21;99231.12;1724255;81;21548;-41
2021/09/21 04:29:46;;;;;;;8.53;6.28;;;;;;;17.71;45.67;99230.70;1727821;81;21149;-45
2021/09/21 04:32:15;;;;;;;8.18;5.90;;;;;;;17.75;44.12;99229.56;1724097;81;21116;-43
2021/09/21 04:34:42;;;;;;;5.30;4.40;;;;;;;17.69;44.17;99228.64;1726219;81;21020;-44
2021/09/21 04:37:08;;;;;;;3.70;3.20;;;;;;;17.62;44.48;99230.03;1725388;80;21495;-44
2021/09/21 04:39:40;;;;;;;3.83;3.42;;;;;;;17.55;44.16;99231.37;1718166;81;21027;-41
2021/09/21 04:42:04;;;;;;;3.80;3.30;;;;;;;17.49;44.01;99227.83;1727257;81;20991;-46
2021/09/21 04:44:32;;;;;;;2.77;2.58;;;;;;;17.41;44.10;99229.17;1731062;80;21349;-43
2021/09/21 04:47:00;;;;;;;9.68;7.15;;;;;;;17.37;44.37;99223.70;1727341;81;21035;-45
2021/09/21 04:49:28;;;;;;;7.08;5.70;;;;;;;17.36;44.00;99226.46;1728938;80;21560;-47
2021/09/21 04:51:54;;;;;;;5.67;4.67;;;;;;;17.29;43.30;99228.68;1727718;80;21014;-46
2021/09/21 04:54:20;;;;;;;6.42;4.22;;;;;;;17.20;43.54;99228.82;1722839;81;21064;-46
2021/09/21 04:56:48;;;;;;;3.17;2.87;;;;;;;17.13;43.35;99227.53;1727273;81;21058;-45
2021/09/21 04:59:16;;;;;;;5.42;3.52;;;;;;;17.05;43.38;99224.05;1719743;81;20980;-45
2021/09/21 05:01:43;;;;;;;2.67;2.47;;;;;;;16.97;43.41;99226.35;1725543;81;22014;-46
2021/09/21 05:04:10;;;;;;;3.25;2.40;;;;;;;16.90;43.38;99229.05;1708039;81;21008;-46
2021/09/21 05:06:36;;;;;;;2.87;2.40;;;;;;;16.85;43.67;99232.48;1719255;81;21032;-44
2021/09/21 05:09:09;;;;;;;2.08;1.95;;;;;;;16.80;44.20;99230.08;1726805;80;22025;-47
2021/09/21 05:11:34;;;;;;;1.65;1.55;;;;;;;16.77;44.08;99228.10;1729918;80;22055;-45
2021/09/21 05:14:01;;;;;;;2.98;1.72;;;;;;;16.74;43.93;99231.80;1710244;81;21034;-45
2021/09/21 05:16:29;;;;;;;4.15;1.52;;;;;;;16.72;44.63;99237.20;1721106;80;22018;-44
2021/09/21 05:18:56;;;;;;;2.72;1.55;;;;;;;16.77;44.68;99226.77;1727809;80;21479;-44
2021/09/21 05:21:24;;;;;;;1.80;1.10;;;;;;;16.84;44.47;99230.73;1727835;81;21054;-46
2021/09/21 05:23:50;;;;;;;1.40;1.30;;;;;;;16.91;44.43;99230.73;1714183;81;20979;-46
2021/09/21 05:26:17;;;;;;;1.00;0.90;;;;;;;16.97;44.26;99239.64;1728292;81;20999;-45
2021/09/21 05:28:44;;;;;;;3.50;1.07;;;;;;;17.01;44.52;99233.64;1728254;80;21532;-47
2021/09/21 05:31:10;;;;;;;2.25;0.90;;;;;;;17.08;44.14;99238.95;1724426;81;21042;-46
2021/09/21 05:33:37;;;;;;;1.00;1.00;;;;;;;17.08;43.71;99235.81;1719165;81;21023;-42
2021/09/21 05:36:04;;;;;;;1.00;0.90;;;;;;;17.09;43.92;99234.83;1728667;81;21023;-42
2021/09/21 05:38:31;;;;;;;3.60;1.02;;;;;;;17.18;43.95;99236.05;1727392;82;21054;-44
2021/09/21 05:40:59;;;;;;;1.00;1.00;;;;;;;17.23;43.42;99235.72;1730994;80;21055;-44
2021/09/21 05:43:25;;;;;;;1.32;0.80;;;;;;;17.25;43.31;99234.69;1729967;81;20978;-42
2021/09/21 05:45:52;;;;;;;1.27;0.80;;;;;;;17.25;43.46;99236.02;1697327;81;20986;-42
2021/09/21 05:48:18;;;;;;;2.35;0.80;;;;;;;17.30;43.44;99230.39;1711243;81;21092;-45
2021/09/21 05:50:44;;;;;;;0.95;0.70;;;;;;;17.37;43.69;99233.01;1726364;81;21032;-48
2021/09/21 05:53:11;;;;;;;2.92;1.27;;;;;;;17.50;44.60;99230.38;1728376;81;21142;-47
2021/09/21 05:55:37;;;;;;;1.00;1.00;;;;;;;17.72;46.20;99225.77;1724494;81;21974;-44
2021/09/21 05:58:03;;;;;;;5.17;0.90;;;;;;;17.97;47.09;99225.41;1721605;81;21784;-46
2021/09/21 06:00:32;;;;;;;2.65;0.85;;;;;;;18.20;47.32;99223.31;1724088;81;20991;-45
2021/09/21 06:02:59;;;;;;;2.60;0.90;;;;;;;18.41;47.58;99228.09;1726429;80;21015;-43
2021/09/21 06:05:25;;;;;;;1.52;0.90;;;;;;;18.60;47.68;99225.43;1729391;81;20979;-44
2021/09/21 06:07:52;;;;;;;2.17;0.85;;;;;;;18.78;47.56;99227.22;1728761;81;20971;-48
2021/09/21 06:10:22;;;;;;;1.00;0.80;;;;;;;18.98;47.24;99227.11;1716582;81;21723;-44
2021/09/21 06:12:48;;;;;;;3.20;0.90;;;;;;;19.13;47.20;99223.30;1696481;81;21499;-47
2021/09/21 06:15:15;;;;;;;3.35;0.62;;;;;;;19.27;47.35;99228.46;1731024;81;20995;-47
2021/09/21 06:17:43;;;;;;;0.85;0.70;;;;;;;19.40;47.41;99227.52;1729992;81;21016;-47
2021/09/21 06:20:12;;;;;;;15.10;0.90;;;;;;;19.52;47.35;99229.28;1731069;80;20940;-48
2021/09/21 06:22:43;;;;;;;3.37;0.80;;;;;;;19.60;47.37;99229.55;1729648;80;21010;-47
2021/09/21 06:25:11;;;;;;;0.70;0.70;;;;;;;19.72;47.33;99229.55;1685748;82;21616;-46
2021/09/21 06:27:38;;;;;;;9.88;0.80;;;;;;;19.82;47.23;99227.89;1683681;82;21646;-45
2021/09/21 06:30:07;;;;;;;3.00;0.62;;;;;;;19.90;46.93;99224.64;1727442;80;21046;-42
2021/09/21 06:32:35;;;;;;;5.47;1.00;;;;;;;19.96;46.39;99230.35;1744710;81;20980;-45
2021/09/21 06:35:03;;;;;;;31.60;16.80;;;;;;;20.02;46.18;99231.22;1726280;80;22344;-45
2021/09/21 06:37:29;;;;;;;15.43;7.53;;;;;;;20.01;42.47;99230.00;1729003;80;20968;-45
2021/09/21 06:39:56;;;;;;;10.45;5.42;;;;;;;19.86;40.46;99232.05;1727246;81;21019;-44
2021/09/21 06:42:22;;;;;;;9.90;6.10;;;;;;;19.64;40.15;99232.33;1738324;81;21841;-45
2021/09/21 06:44:50;;;;;;;10.35;5.30;;;;;;;19.43;40.66;99232.63;1738076;80;21007;-42
2021/09/21 06:47:17;;;;;;;5.65;3.17;;;;;;;19.22;40.51;99239.96;1711011;80;22390;-43
2021/09/21 06:49:43;;;;;;;7.90;3.30;;;;;;;19.04;40.31;99238.17;1715128;80;21019;-43
2021/09/21 06:52:11;;;;;;;6.42;3.45;;;;;;;18.86;40.56;99240.87;1727386;80;21047;-45
2021/09/21 06:54:38;;;;;;;3.85;2.60;;;;;;;18.72;40.73;99248.52;1733067;81;21642;-44
2021/09/21 06:57:05;;;;;;;5.58;2.95;;;;;;;18.60;41.21;99246.75;1722330;81;21929;-43
2021/09/21 06:59:31;;;;;;;6.33;2.65;;;;;;;18.50;41.30;99247.39;1728844;81;21115;-42
2021/09/21 07:01:58;;;;;;;2.70;2.08;;;;;;;18.40;41.37;99249.02;1723342;80;22108;-43
2021/09/21 07:04:25;;;;;;;2.90;1.80;;;;;;;18.33;41.43;99253.09;1711118;81;21006;-45
2021/09/21 07:06:51;;;;;;;2.22;1.30;;;;;;;18.24;41.14;99259.05;1730165;80;20983;-44
2021/09/21 07:09:18;;;;;;;2.65;1.25;;;;;;;18.15;40.92;99256.07;1720069;80;22111;-41
2021/09/21 07:11:44;;;;;;;1.40;1.30;;;;;;;18.07;41.00;99258.45;1725092;81;21125;-42
2021/09/21 07:14:14;;;;;;;3.30;1.55;;;;;;;18.00;40.80;99257.15;1729985;80;21006;-45
2021/09/21 07:16:41;;;;;;;7.78;5.55;;;;;;;17.93;41.08;99257.20;1718259;81;21040;-42
2021/09/21 07:19:09;;;;;;;13.08;6.37;;;;;;;17.96;42.46;99266.32;1728176;81;21407;-43
2021/09/21 07:21:36;;;;;;;6.25;5.15;;;;;;;18.02;42.22;99265.88;1690629;81;21015;-44
2021/09/21 07:24:04;;;;;;;4.72;3.95;;;;;;;18.07;42.11;99266.44;1712562;81;21047;-42
2021/09/21 07:26:30;;;;;;;4.28;3.87;;;;;;;18.09;42.40;99270.29;1726099;81;22010;-44
2021/09/21 07:28:56;;;;;;;7.72;3.35;;;;;;;18.10;42.15;99271.52;1728911;81;20978;-44
2021/09/21 07:31:23;;;;;;;4.37;2.80;;;;;;;18.11;41.86;99274.56;1726430;81;21969;-45
2021/09/21 07:33:49;;;;;;;2.95;2.67;;;;;;;18.14;41.78;99270.81;1727046;81;21027;-45
2021/09/21 07:36:16;;;;;;;2.27;2.05;;;;;;;18.16;42.02;99268.44;1727853;80;21449;-44
2021/09/21 07:38:42;;;;;;;2.40;2.20;;;;;;;18.19;41.79;99268.23;1737674;80;21019;-45
2021/09/21 07:41:09;;;;;;;2.77;2.58;;;;;;;18.23;42.08;99266.20;1713727;81;21892;-47
2021/09/21 07:43:35;;;;;;;2.83;2.60;;;;;;;18.39;42.84;99272.61;1709811;80;21037;-43
2021/09/21 07:46:01;;;;;;;3.98;2.37;;;;;;;18.63;43.16;99270.52;1731928;81;20967;-43
2021/09/21 07:48:28;;;;;;;1.92;1.82;;;;;;;18.87;43.22;99275.41;1724540;80;21619;-45
2021/09/21 07:50:56;;;;;;;5.75;2.15;;;;;;;19.11;43.17;99271.91;1728678;80;21034;-46
2021/09/21 07:53:23;;;;;;;6.50;2.37;;;;;;;19.32;43.04;99273.47;1724994;81;22004;-48
2021/09/21 07:55:52;;;;;;;6.90;2.30;;;;;;;19.52;42.97;99278.65;1728041;81;20986;-46
2021/09/21 07:58:19;;;;;;;5.42;2.55;;;;;;;19.71;42.89;99282.59;1704611;81;21003;-48
2021/09/21 08:00:46;;;;;;;9.73;3.50;;;;;;;19.88;43.84;99275.48;1727711;81;21109;-47
2021/09/21 08:03:13;;;;;;;8.43;2.80;;;;;;;20.01;44.61;99269.56;1727660;81;20997;-47
2021/09/21 08:05:40;;;;;;;7.05;3.33;;;;;;;20.13;44.37;99268.25;1712516;81;20971;-46
2021/09/21 08:08:08;;;;;;;8.10;2.52;;;;;;;20.25;43.90;99272.62;1728007;81;21531;-46
2021/09/21 08:10:35;;;;;;;16.62;3.25;;;;;;;20.36;43.76;99268.63;1704113;81;21051;-47
2021/09/21 08:13:04;;;;;;;7.10;2.70;;;;;;;20.48;43.76;99268.13;1726238;80;21023;-44
2021/09/21 08:15:30;;;;;;;6.03;2.33;;;;;;;20.58;43.71;99267.75;1729147;80;21117;-43
2021/09/21 08:17:58;;;;;;;8.63;2.62;;;;;;;20.69;43.56;99268.25;1715596;81;21034;-49
2021/09/21 08:20:28;;;;;;;9.60;2.50;;;;;;;20.80;43.46;99259.88;1728204;81;20993;-46
2021/09/21 08:22:55;;;;;;;8.63;2.58;;;;;;;20.88;43.54;99261.41;1722246;81;20999;-48
2021/09/21 08:25:22;;;;;;;5.12;2.42;;;;;;;20.97;43.38;99263.34;1707899;82;21497;-46
2021/09/21 08:27:51;;;;;;;9.98;2.85;;;;;;;21.05;43.29;99256.88;1704123;81;21608;-48
2021/09/21 08:30:19;;;;;;;10.70;2.50;;;;;;;21.15;43.23;99268.52;1715262;81;21087;-44
2021/09/21 08:32:47;;;;;;;8.25;2.60;;;;;;;21.22;43.19;99262.17;1728560;80;20995;-46
2021/09/21 08:35:14;;;;;;;13.53;2.35;;;;;;;21.29;43.18;99261.17;1729077;80;21028;-45
2021/09/21 08:37:40;;;;;;;4.50;2.12;;;;;;;21.37;43.15;99265.40;1729209;81;21138;-46
2021/09/21 08:40:08;;;;;;;8.60;2.75;;;;;;;21.43;43.10;99267.54;1692390;82;21009;-42
2021/09/21 08:42:36;;;;;;;5.65;2.60;;;;;;;21.50;42.90;99274.14;1698443;81;21007;-43
2021/09/21 08:45:03;;;;;;;37.17;14.47;;;;;;;21.45;38.39;99264.27;1726307;80;20988;-44
2021/09/21 08:47:31;;;;;;;11.50;5.97;;;;;;;21.25;37.89;99268.61;1728366;81;21027;-42
2021/09/21 08:49:57;;;;;;;8.68;4.08;;;;;;;21.00;37.71;99268.45;1695933;82;21094;-45
2021/09/21 08:52:24;;;;;;;3.08;2.70;;;;;;;20.81;37.83;99268.23;1706613;82;21684;-43
2021/09/21 08:54:50;;;;;;;5.15;2.47;;;;;;;20.60;37.60;99263.13;1700917;82;22032;-45
2021/09/21 08:57:17;;;;;;;5.12;1.80;;;;;;;20.43;37.79;99274.83;1705775;81;21024;-45
2021/09/21 08:59:52;;;;;;;2.77;1.62;;;;;;;20.30;37.86;99277.61;1705101;81;22304;-46
2021/09/21 09:02:18;;;;;;;8.35;2.00;;;;;;;20.18;37.63;99269.58;1726180;80;24599;-44
2021/09/21 09:04:58;;;;;;;7.15;2.60;;;;;;;20.13;39.50;99274.44;1729171;81;21525;-45
2021/09/21 09:07:26;;;;;;;7.20;2.42;;;;;;;20.18;40.63;99276.75;1729946;81;21007;-46
2021/09/21 09:10:03;;;;;;;4.55;2.05;;;;;;;20.29;41.16;99276.77;1726727;81;21079;-47
2021/09/21 09:12:32;;;;;;;4.65;2.00;;;;;;;20.41;41.47;99278.95;1732684;80;21412;-45
2021/09/21 09:14:59;;;;;;;4.53;2.08;;;;;;;20.55;41.72;99275.17;1712964;81;21649;-45
2021/09/21 09:17:26;;;;;;;3.65;2.10;;;;;;;20.66;41.91;99275.67;1728203;80;21006;-45
2021/09/21 09:19:52;;;;;;;7.25;1.92;;;;;;;20.75;42.09;99282.47;1729739;81;21015;-45
2021/09/21 09:22:26;;;;;;;2.55;1.65;;;;;;;20.86;42.20;99283.42;1730640;80;21031;-41
2021/09/21 09:25:05;;;;;;;3.45;2.00;;;;;;;20.94;42.42;99287.16;1729897;81;20980;-46
2021/09/21 09:27:47;;;;;;;3.37;1.55;;;;;;;21.03;42.56;99284.72;1729334;80;21118;-44
2021/09/21 09:30:16;;;;;;;1.40;1.00;;;;;;;21.10;39.35;99281.92;1728008;80;21070;-43
2021/09/21 09:32:55;;;;;;;3.85;1.12;;;;;;;21.00;38.56;99292.52;1724687;81;21035;-45
2021/09/21 09:35:30;;;;;;;3.52;1.22;;;;;;;20.84;38.23;99287.55;1706280;81;21245;-45
2021/09/21 09:38:00;;;;;;;4.10;1.80;;;;;;;20.65;37.82;99280.17;1727229;81;20999;-43
2021/09/21 09:40:27;;;;;;;3.65;2.00;;;;;;;20.49;37.59;99289.86;1731495;80;21797;-44
2021/09/21 09:42:54;;;;;;;2.62;1.57;;;;;;;20.34;37.59;99291.95;1725048;80;21028;-42
2021/09/21 09:45:29;;;;;;;3.22;1.72;;;;;;;20.22;37.79;99293.77;1726698;81;20983;-42
2021/09/21 09:47:56;;;;;;;1.00;1.00;;;;;;;20.15;37.80;99294.35;1729453;80;21023;-40
2021/09/21 09:50:32;;;;;;;1.05;1.00;;;;;;;20.08;37.63;99292.64;1729307;80;21055;-43
2021/09/21 09:53:13;;;;;;;8.33;4.90;;;;;;;20.01;36.98;99297.61;1728115;80;21124;-45
2021/09/21 09:55:44;;;;;;;5.60;3.40;;;;;;;19.92;36.90;99302.80;1676480;83;21133;-45
2021/09/21 09:58:11;;;;;;;3.85;2.33;;;;;;;19.81;37.02;99304.97;1725245;81;21506;-45
2021/09/21 10:00:37;;;;;;;3.33;2.45;;;;;;;19.68;37.19;99304.52;1692598;82;21077;-44
2021/09/21 10:03:06;;;;;;;2.52;2.22;;;;;;;19.59;37.49;99299.89;1717349;81;21560;-45
2021/09/21 10:05:35;;;;;;;2.77;1.60;;;;;;;19.52;37.91;99304.00;1731065;81;21111;-43
2021/09/21 10:08:02;;;;;;;2.00;1.10;;;;;;;19.47;38.05;99300.33;1730369;81;21027;-42
2021/09/21 10:10:29;;;;;;;3.05;1.55;;;;;;;19.41;37.65;99297.27;1741190;81;21616;-42
2021/09/21 10:12:58;;;;;;;1.50;1.20;;;;;;;19.34;37.40;99300.87;1729307;81;21035;-42
2021/09/21 10:15:27;;;;;;;3.15;1.02;;;;;;;19.26;37.54;99301.44;1722604;81;21060;-46
2021/09/21 10:17:57;;;;;;;2.95;1.10;;;;;;;19.18;37.79;99302.97;1718423;81;23326;-44
2021/09/21 10:20:34;;;;;;;11.83;2.10;;;;;;;19.09;38.17;99305.34;1722511;81;21468;-42
2021/09/21 10:23:01;;;;;;;10.05;2.37;;;;;;;19.08;41.72;99310.33;1701059;81;21044;-46
2021/09/21 10:25:35;;;;;;;11.57;3.02;;;;;;;19.23;44.06;99307.02;1729603;81;21053;-44
2021/09/21 10:28:20;;;;;;;5.35;2.33;;;;;;;19.40;45.61;99308.89;1729995;81;21632;-45
2021/09/21 10:30:58;;;;;;;14.50;2.80;;;;;;;19.58;46.52;99307.52;1729875;81;21576;-43
2021/09/21 10:33:26;;;;;;;10.00;2.40;;;;;;;19.75;47.06;99301.42;1736703;81;21074;-43
2021/09/21 10:35:53;;;;;;;12.55;2.47;;;;;;;19.92;47.58;99311.69;1723422;81;21089;-42
2021/09/21 10:38:20;;;;;;;8.40;2.52;;;;;;;20.06;47.69;99309.27;1728873;81;21446;-44
2021/09/21 10:40:52;;;;;;;17.87;2.60;;;;;;;20.20;47.95;99316.21;1726902;81;21086;-44
2021/09/21 10:43:32;;;;;;;12.70;2.37;;;;;;;20.29;47.90;99314.17;1705346;81;21560;-41
2021/09/21 10:46:17;;;;;;;6.05;2.27;;;;;;;20.39;47.95;99307.13;1727200;81;21001;-43
2021/09/21 10:48:45;;;;;;;9.35;2.05;;;;;;;20.50;47.45;99311.61;1727700;81;20986;-43
2021/09/21 10:51:12;;;;;;;6.83;2.35;;;;;;;20.61;46.89;99310.78;1732116;81;21031;-43
2021/09/21 10:53:40;;;;;;;4.75;2.12;;;;;;;20.71;46.48;99318.45;1714839;81;21253;-41
2021/09/21 10:56:12;;;;;;;6.65;2.70;;;;;;;20.82;46.10;99315.41;1728212;81;21155;-39
2021/09/21 10:58:52;;;;;;;6.00;1.98;;;;;;;20.90;45.97;99313.81;1731899;80;22562;-40
2021/09/21 11:01:20;;;;;;;4.42;2.00;;;;;;;20.97;45.54;99317.67;1721693;81;20973;-40
2021/09/21 11:03:47;;;;;;;6.50;1.70;;;;;;;21.00;43.64;99323.28;1726310;81;21552;-42
2021/09/21 11:06:14;;;;;;;6.85;1.90;;;;;;;20.94;42.34;99320.59;1731350;81;20988;-41
2021/09/21 11:08:41;;;;;;;8.20;1.50;;;;;;;20.88;41.63;99318.91;1701342;81;21857;-41
2021/09/21 11:11:09;;;;;;;3.85;1.37;;;;;;;20.80;41.59;99316.02;1717204;82;21066;-41
2021/09/21 11:13:43;;;;;;;1.40;1.27;;;;;;;20.74;40.96;99320.86;1716144;82;21058;-42
2021/09/21 11:16:13;;;;;;;1.80;1.20;;;;;;;20.69;40.56;99319.04;1715530;82;21070;-40
2021/09/21 11:18:43;;;;;;;1.85;1.20;;;;;;;20.61;39.90;99321.47;1700397;82;21071;-40
2021/09/21 11:21:10;;;;;;;1.60;1.02;;;;;;;20.55;39.78;99322.79;1711638;82;21096;-40
2021/09/21 11:23:39;;;;;;;0.80;0.80;;;;;;;20.49;39.23;99327.27;1702480;82;21098;-41
2021/09/21 11:26:09;;;;;;;1.45;0.95;;;;;;;20.43;37.97;99333.62;1727078;81;21119;-41
2021/09/21 11:28:38;;;;;;;1.05;0.82;;;;;;;20.35;37.51;99335.05;1718339;81;21142;-40
2021/09/21 11:31:05;;;;;;;1.05;0.95;;;;;;;20.28;37.28;99335.66;1676620;83;21591;-41
2021/09/21 11:33:35;;;;;;;1.70;1.45;;;;;;;20.20;37.39;99337.58;1665880;84;21116;-42
2021/09/21 11:36:06;;;;;;;1.72;1.20;;;;;;;20.14;37.40;99338.05;1715709;81;21080;-41
2021/09/21 11:38:36;;;;;;;1.90;1.15;;;;;;;20.06;37.49;99340.48;1744737;81;20980;-42
2021/09/21 11:41:04;;;;;;;0.88;0.88;;;;;;;20.00;37.60;99339.11;1724835;81;20946;-41